Ne plus se rappeler de moi
Bonjour et Bienvenue
Pas de session ouverte
Mardi 23/09/2014
d:\inetpub\wwwroot\acrroussillon\reservation\ACR\IMAGES\IMG1.JPGd:\inetpub\wwwroot\acrroussillon\reservation\ACR\IMAGES\IMG2.JPGd:\inetpub\wwwroot\acrroussillon\reservation\ACR/IMAGES/IMG3.jpg
00:00:00
Horaires du 23/09/2014 (Données à titre indicatif seulement).
Lever du soleil : 07h37 - Coucher du soleil : 19h45 (Heure Locale)
Jour aéronautique : 07h07 - Nuit aéronautique : 20h15 (Heure Locale)
Planning des réservations des aéronefs
Planning des réservations des aéronefs
2014/09/23 06:00
LFMP 230600Z 00000KT 9999 SCT100 BKN170 17/07 Q1013 NOSIG
Planning des réservations des aéronefs
2014/09/23 06:15
TAF LFMP 230500Z 2306/2406 02005KT 9999 NSC
TEMPO 2308/2314 04015KT
BECMG 2319/2321 30007KT
TEMPO 2401/2406 -SHRA
Informations sur les aéronefs
Informations sur les aéronefs
Modifications des Types de vols
ATTENTION PLUS DE PAIEMENT EN LIGNE DEPUIS LA MAISON
AEROCLUB DU ROUSSILLON. AVENUE MAURICE BELLONTE. 66000 PERPIGNAN. Tel : 04.68.73.48.18 Fax : 09.55.16.18.97 Courriel : aeroclub-roussillon@hotmail.fr
 METAR / TAF
LIENS UTILES
envoyer un e-mail
d:\inetpub\wwwroot\acrroussillon\reservation\ACR/IMAGES/Logo.jpg
Identifiez vous pour interaction
d:\inetpub\wwwroot\acrroussillon\reservation\ACR/IMAGES/Logo.jpg
Aéro-Club du Roussillon